Time;durP1;ratioP1;P1;durP2;ratioP2;P2;SDS_P1;SDS_P2;PMS_P1;PMS_P2;Temp;Humidity;BMP_temperature;BMP_pressure;BME280_temperature;BME280_humidity;BME280_pressure;Samples;Min_cycle;Max_cycle;Signal;HPM_P1;HPM_P2
2022/03/31 00:01:33;;;;;;;;;36.75;33.50;;;;;12.93;82.62;99738.78;4995522;28;45435;-72
2022/03/31 00:03:58;;;;;;;;;36.50;31.75;;;;;12.92;82.04;99738.75;5045948;27;45510;-72
2022/03/31 00:06:24;;;;;;;;;41.25;34.00;;;;;12.93;81.80;99743.97;5086702;27;45564;-72
2022/03/31 00:08:49;;;;;;;;;34.75;31.25;;;;;12.88;81.64;99734.34;5012675;27;45876;-72
2022/03/31 00:11:15;;;;;;;;;36.25;31.25;;;;;12.93;81.15;99732.72;5003748;28;45383;-75
2022/03/31 00:13:42;;;;;;;;;34.75;31.00;;;;;12.91;81.09;99734.41;5011320;27;45355;-73
2022/03/31 00:16:07;;;;;;;;;42.00;34.75;;;;;12.95;81.06;99729.28;4996672;27;45322;-73
2022/03/31 00:18:33;;;;;;;;;41.25;33.50;;;;;12.94;81.02;99730.13;4994568;28;47888;-71
2022/03/31 00:21:00;;;;;;;;;40.25;31.75;;;;;12.97;80.76;99737.09;5002478;27;45573;-75
2022/03/31 00:23:26;;;;;;;;;38.50;32.50;;;;;12.90;80.64;99735.25;5008164;28;45940;-75
2022/03/31 00:25:52;;;;;;;;;45.50;33.25;;;;;12.89;81.05;99736.09;5085753;27;45461;-74
2022/03/31 00:28:17;;;;;;;;;39.00;33.50;;;;;12.81;81.10;99722.97;4999735;27;45463;-76
2022/03/31 00:30:43;;;;;;;;;33.50;31.00;;;;;12.84;81.51;99734.31;5026014;27;45555;-72
2022/03/31 00:33:09;;;;;;;;;36.00;32.50;;;;;12.81;81.50;99733.34;5038436;27;45386;-76
2022/03/31 00:35:35;;;;;;;;;41.00;33.75;;;;;12.77;81.64;99727.25;5017794;27;45520;-73
2022/03/31 00:38:00;;;;;;;;;34.25;29.25;;;;;12.74;81.99;99718.53;4995421;28;45325;-78
2022/03/31 00:40:27;;;;;;;;;40.50;31.25;;;;;12.68;81.39;99701.09;5000166;27;45732;-73
2022/03/31 00:42:57;;;;;;;;;35.75;32.75;;;;;12.75;81.55;99726.31;4997491;27;45481;-74
2022/03/31 00:45:27;;;;;;;;;38.75;33.50;;;;;12.69;81.84;99718.44;5012063;28;45494;-75
2022/03/31 00:47:54;;;;;;;;;37.25;31.50;;;;;12.67;81.89;99717.53;5007098;27;45930;-74
2022/03/31 00:50:22;;;;;;;;;39.25;31.75;;;;;12.65;82.09;99722.69;5017722;27;45932;-73
2022/03/31 00:52:48;;;;;;;;;42.75;33.25;;;;;12.65;82.50;99709.72;4994211;28;45387;-72
2022/03/31 00:55:16;;;;;;;;;41.50;34.75;;;;;12.63;82.41;99713.16;5011982;27;45567;-74
2022/03/31 00:57:43;;;;;;;;;36.50;31.25;;;;;12.59;83.00;99719.97;5009809;28;45464;-73
2022/03/31 01:00:11;;;;;;;;;40.00;33.75;;;;;12.54;83.05;99698.25;5020876;27;45556;-74
2022/03/31 01:02:38;;;;;;;;;40.75;34.25;;;;;12.54;83.34;99706.03;5001050;27;45302;-74
2022/03/31 01:05:06;;;;;;;;;39.00;32.25;;;;;12.58;83.44;99704.38;5005902;27;45650;-75
2022/03/31 01:07:35;;;;;;;;;38.50;30.00;;;;;12.53;83.56;99710.34;5084447;27;45446;-73
2022/03/31 01:10:02;;;;;;;;;39.00;32.50;;;;;12.48;83.87;99703.31;5042107;27;45344;-74
2022/03/31 01:12:28;;;;;;;;;34.75;30.25;;;;;12.46;84.85;99702.44;5000461;28;45434;-73
2022/03/31 01:15:16;;;;;;;;;39.50;33.50;;;;;12.46;85.16;99707.63;5006463;27;45402;-74
2022/03/31 01:17:44;;;;;;;;;40.50;33.75;;;;;12.36;85.81;99699.63;5029172;27;46148;-72
2022/03/31 01:20:14;;;;;;;;;41.00;34.50;;;;;12.41;85.89;99707.53;5050666;27;45499;-71
2022/03/31 01:22:42;;;;;;;;;40.25;33.25;;;;;12.36;86.17;99709.16;4996251;27;45753;-74
2022/03/31 01:25:09;;;;;;;;;39.75;33.00;;;;;12.19;86.72;99690.66;4994143;28;45569;-72
2022/03/31 01:27:38;;;;;;;;;40.75;34.25;;;;;12.25;87.25;99701.19;4994730;28;45476;-73
2022/03/31 01:30:13;;;;;;;;;45.50;35.25;;;;;12.24;87.25;99699.41;5027429;27;45468;-73
2022/03/31 01:32:40;;;;;;;;;44.75;35.75;;;;;12.23;87.65;99695.94;5006122;27;45501;-73
2022/03/31 01:35:06;;;;;;;;;38.75;33.25;;;;;12.27;87.94;99689.09;5029516;27;45510;-72
2022/03/31 01:37:31;;;;;;;;;39.25;29.50;;;;;12.24;87.69;99683.84;4999316;27;45480;-72
2022/03/31 01:39:57;;;;;;;;;40.25;34.50;;;;;12.20;88.10;99679.44;5046839;27;45371;-73
2022/03/31 01:42:23;;;;;;;;;40.50;33.00;;;;;12.18;88.08;99686.31;5026035;27;45500;-73
2022/03/31 01:44:49;;;;;;;;;40.75;34.00;;;;;12.11;88.90;99677.53;4979383;28;45421;-74
2022/03/31 01:47:16;;;;;;;;;43.50;35.25;;;;;12.11;89.34;99679.25;5004690;28;45548;-73
2022/03/31 01:49:41;;;;;;;;;43.00;34.25;;;;;12.10;89.61;99675.78;4998035;27;45409;-72
2022/03/31 01:52:07;;;;;;;;;32.25;31.50;;;;;12.08;89.35;99669.69;5059666;27;45476;-72
2022/03/31 01:54:36;;;;;;;;;44.25;35.25;;;;;12.06;89.95;99667.06;4998276;27;45583;-75
2022/03/31 01:57:02;;;;;;;;;45.00;34.25;;;;;12.00;89.97;99666.94;5005662;27;46148;-74
2022/03/31 01:59:33;;;;;;;;;44.50;34.00;;;;;11.87;90.14;99642.44;5011637;28;45457;-73
2022/03/31 02:01:58;;;;;;;;;45.00;34.50;;;;;11.92;90.58;99656.38;5003122;28;45331;-74
2022/03/31 02:04:24;;;;;;;;;43.75;35.75;;;;;11.88;90.91;99654.53;4997851;27;45478;-71
2022/03/31 02:06:50;;;;;;;;;48.00;38.00;;;;;11.84;91.36;99654.44;4994268;28;45850;-72
2022/03/31 02:09:15;;;;;;;;;48.75;37.75;;;;;11.76;91.77;99662.09;4979093;28;45722;-73
2022/03/31 02:11:41;;;;;;;;;50.25;37.75;;;;;11.71;92.26;99651.63;5003206;27;45507;-73
2022/03/31 02:14:06;;;;;;;;;46.75;36.00;;;;;11.69;93.00;99661.09;5021470;27;45334;-72
2022/03/31 02:16:32;;;;;;;;;50.00;39.75;;;;;11.68;92.63;99651.56;5059680;27;45893;-74
2022/03/31 02:18:57;;;;;;;;;43.25;35.00;;;;;11.59;93.13;99643.59;4996889;27;45358;-73
2022/03/31 02:21:23;;;;;;;;;50.75;37.25;;;;;11.61;93.54;99653.13;5037099;27;45290;-73
2022/03/31 02:23:49;;;;;;;;;46.75;37.50;;;;;11.56;94.19;99653.88;4996702;28;45274;-73
2022/03/31 02:26:14;;;;;;;;;49.75;38.75;;;;;11.57;94.20;99655.63;5004090;27;45692;-73
2022/03/31 02:28:40;;;;;;;;;39.75;34.00;;;;;11.57;94.00;99655.63;4978104;27;45314;-72
2022/03/31 02:31:05;;;;;;;;;49.00;36.75;;;;;11.54;94.20;99660.72;5016540;27;45416;-74
2022/03/31 02:33:31;;;;;;;;;44.75;35.25;;;;;11.43;94.81;99645.81;5032504;27;45425;-72
2022/03/31 02:35:57;;;;;;;;;37.50;33.50;;;;;11.36;94.67;99643.94;5011971;28;45989;-72
2022/03/31 02:38:22;;;;;;;;;48.00;38.00;;;;;11.37;94.89;99650.88;4995459;27;45256;-74
2022/03/31 02:40:48;;;;;;;;;50.00;39.00;;;;;11.27;95.49;99634.22;4998028;27;45538;-72
2022/03/31 02:43:13;;;;;;;;;50.00;37.00;;;;;11.33;95.81;99654.22;5009954;27;45572;-73
2022/03/31 02:45:39;;;;;;;;;47.00;37.75;;;;;11.27;95.52;99646.34;4992413;28;46079;-72
2022/03/31 02:48:05;;;;;;;;;44.75;35.25;;;;;11.34;95.55;99657.72;4987219;28;45420;-72
2022/03/31 02:50:31;;;;;;;;;50.50;39.50;;;;;11.30;95.82;99656.75;4978707;28;45525;-72
2022/03/31 02:55:40;;;;;;;;;50.75;38.25;;;;;11.30;95.63;99648.97;4996301;27;45408;-72
2022/03/31 02:58:06;;;;;;;;;50.50;41.25;;;;;11.27;95.84;99651.50;4992733;28;45458;-72
2022/03/31 03:00:34;;;;;;;;;52.50;41.75;;;;;11.34;95.75;99653.41;5000188;27;45494;-72
2022/03/31 03:03:03;;;;;;;;;46.00;37.50;;;;;11.39;95.20;99651.75;4993018;28;45342;-73
2022/03/31 03:05:30;;;;;;;;;53.75;41.75;;;;;11.41;95.01;99642.31;5011036;28;46297;-73
2022/03/31 03:07:56;;;;;;;;;54.25;40.00;;;;;11.43;93.74;99640.63;4984096;28;45782;-74
2022/03/31 03:10:22;;;;;;;;;50.50;38.25;;;;;11.36;94.09;99637.88;5002555;27;45374;-74
2022/03/31 03:12:49;;;;;;;;;42.75;37.75;;;;;11.41;94.37;99641.44;5000501;27;45371;-74
2022/03/31 03:15:16;;;;;;;;;49.75;38.75;;;;;11.42;93.71;99640.63;5034482;27;46106;-74
2022/03/31 03:17:45;;;;;;;;;48.50;37.25;;;;;11.35;93.65;99634.41;5004661;27;45307;-73
2022/03/31 03:20:13;;;;;;;;;46.50;38.00;;;;;11.38;93.40;99633.59;5019642;27;45477;-74
2022/03/31 03:22:47;;;;;;;;;51.50;39.75;;;;;11.37;93.41;99629.25;4998622;28;45452;-73
2022/03/31 03:25:15;;;;;;;;;50.25;38.75;;;;;11.37;93.75;99622.38;5016478;27;45417;-74
2022/03/31 03:27:42;;;;;;;;;51.25;39.75;;;;;11.34;93.51;99624.88;5032083;27;45301;-74
2022/03/31 03:30:08;;;;;;;;;50.50;42.75;;;;;11.30;93.74;99610.09;5060666;27;45489;-76
2022/03/31 03:32:36;;;;;;;;;48.50;39.00;;;;;11.34;93.83;99629.22;5008234;27;45489;-73
2022/03/31 03:35:07;;;;;;;;;49.00;39.75;;;;;11.32;93.98;99626.56;5097120;27;46196;-73
2022/03/31 03:37:33;;;;;;;;;49.00;37.50;;;;;11.32;94.26;99623.97;5032474;27;45706;-74
2022/03/31 03:40:02;;;;;;;;;48.50;38.50;;;;;11.30;93.91;99618.75;5007380;27;45465;-73
2022/03/31 03:42:28;;;;;;;;;54.25;41.00;;;;;11.31;93.62;99614.44;4987522;28;45486;-77
2022/03/31 03:44:54;;;;;;;;;56.75;42.25;;;;;11.34;93.09;99616.25;5003495;27;46068;-75
2022/03/31 03:47:21;;;;;;;;;50.00;39.75;;;;;11.34;92.56;99618.84;5030015;27;45343;-75
2022/03/31 03:49:47;;;;;;;;;50.25;38.25;;;;;11.31;92.71;99614.44;4996559;27;45402;-72
2022/03/31 03:52:13;;;;;;;;;48.75;39.25;;;;;11.31;92.30;99614.44;5002169;27;45499;-72
2022/03/31 03:54:39;;;;;;;;;53.25;40.25;;;;;11.32;91.55;99617.94;5011983;27;46374;-72
2022/03/31 03:57:05;;;;;;;;;51.00;41.00;;;;;11.29;91.27;99614.41;5014249;27;45973;-72
2022/03/31 03:59:31;;;;;;;;;49.00;38.25;;;;;11.28;91.45;99622.19;5044277;27;45496;-74
2022/03/31 04:01:59;;;;;;;;;51.50;39.00;;;;;11.16;90.88;99617.56;5098492;27;45458;-73
2022/03/31 04:04:29;;;;;;;;;53.00;40.00;;;;;11.17;91.03;99627.09;5097363;27;46334;-72
2022/03/31 04:06:58;;;;;;;;;49.75;38.50;;;;;11.04;90.55;99610.41;5049981;27;45461;-72
2022/03/31 04:09:24;;;;;;;;;52.00;38.25;;;;;11.04;90.96;99617.28;4994852;28;45365;-72
2022/03/31 04:11:51;;;;;;;;;49.25;39.00;;;;;11.01;90.84;99623.28;4995325;27;45292;-72
2022/03/31 04:14:17;;;;;;;;;50.00;38.00;;;;;10.93;90.99;99622.22;5020940;27;46214;-71
2022/03/31 04:16:43;;;;;;;;;52.00;40.00;;;;;10.98;90.82;99630.94;5016712;27;45952;-76
2022/03/31 04:19:09;;;;;;;;;49.75;37.75;;;;;10.89;90.76;99621.28;5005832;27;45761;-72
2022/03/31 04:21:35;;;;;;;;;45.75;37.50;;;;;10.89;90.59;99625.56;5010317;28;45363;-72
2022/03/31 04:24:02;;;;;;;;;50.25;40.00;;;;;10.92;90.22;99628.22;4996857;27;46224;-72
2022/03/31 04:26:27;;;;;;;;;52.25;40.00;;;;;10.89;89.59;99636.81;5003550;27;45868;-72
2022/03/31 04:28:53;;;;;;;;;49.25;40.00;;;;;10.84;89.66;99633.22;4995049;27;45213;-74
2022/03/31 04:31:18;;;;;;;;;51.25;40.75;;;;;10.75;90.04;99615.72;5001666;28;45634;-73
2022/03/31 04:33:44;;;;;;;;;55.00;41.00;;;;;10.77;89.82;99623.56;5012669;27;46022;-73
2022/03/31 04:36:10;;;;;;;;;50.75;40.25;;;;;10.75;90.11;99627.81;4999228;28;45533;-73
2022/03/31 04:38:35;;;;;;;;;53.50;40.75;;;;;10.75;90.13;99627.81;4997000;27;45544;-73
2022/03/31 04:41:01;;;;;;;;;51.75;41.25;;;;;10.69;89.61;99621.63;4995446;27;45722;-74
2022/03/31 04:43:26;;;;;;;;;51.75;38.00;;;;;10.59;90.56;99624.81;4994470;28;45290;-73
2022/03/31 04:45:52;;;;;;;;;48.75;38.50;;;;;10.56;90.32;99627.38;5070822;27;45496;-72
2022/03/31 04:48:18;;;;;;;;;59.75;44.50;;;;;10.48;90.61;99619.41;4996448;27;45353;-73
2022/03/31 04:50:44;;;;;;;;;51.50;40.75;;;;;10.48;91.17;99631.44;5004955;27;45802;-72
2022/03/31 04:53:11;;;;;;;;;50.50;36.25;;;;;10.48;91.54;99627.16;5023186;27;45408;-73
2022/03/31 04:55:37;;;;;;;;;61.25;44.00;;;;;10.46;91.50;99615.88;5003926;27;45483;-75
2022/03/31 04:58:04;;;;;;;;;54.00;43.00;;;;;10.39;91.78;99595.88;4995208;28;45320;-73
2022/03/31 05:00:29;;;;;;;;;57.50;44.00;;;;;10.52;91.82;99615.16;4984066;28;45615;-74
2022/03/31 05:02:55;;;;;;;;;56.75;43.00;;;;;10.53;91.49;99609.16;4993560;28;46003;-74
2022/03/31 05:05:21;;;;;;;;;56.50;44.00;;;;;10.48;91.00;99608.16;5045074;27;45466;-73
2022/03/31 05:07:47;;;;;;;;;57.00;42.75;;;;;10.56;91.35;99618.69;4994896;28;45548;-73
2022/03/31 05:10:12;;;;;;;;;53.25;42.50;;;;;10.58;91.47;99623.09;5046890;27;45524;-75
2022/03/31 05:12:38;;;;;;;;;56.75;44.50;;;;;10.53;91.42;99617.78;4988275;28;45599;-73
2022/03/31 05:15:04;;;;;;;;;48.25;39.50;;;;;10.54;91.40;99621.25;4977792;28;45568;-73
2022/03/31 05:17:34;;;;;;;;;57.00;43.75;;;;;10.50;91.97;99624.59;4991039;27;45359;-73
2022/03/31 05:20:07;;;;;;;;;56.25;45.00;;;;;10.42;92.19;99619.22;5070916;27;45625;-73
2022/03/31 05:22:33;;;;;;;;;59.25;44.75;;;;;10.47;92.31;99634.91;5045059;27;45244;-73
2022/03/31 05:25:00;;;;;;;;;57.00;44.50;;;;;10.46;92.44;99644.34;4983091;28;45514;-71
2022/03/31 05:27:25;;;;;;;;;60.50;43.50;;;;;10.46;92.66;99644.34;4976304;28;45524;-73
2022/03/31 05:29:51;;;;;;;;;60.25;46.75;;;;;10.42;92.56;99642.50;4997054;27;45577;-71
2022/03/31 05:32:17;;;;;;;;;57.75;46.25;;;;;10.46;92.56;99652.13;4992415;27;46015;-73
2022/03/31 05:34:42;;;;;;;;;64.00;46.50;;;;;10.47;92.21;99647.84;4980175;28;45405;-73
2022/03/31 05:37:08;;;;;;;;;58.00;47.00;;;;;10.39;93.13;99647.63;4992761;28;45459;-73
2022/03/31 05:39:34;;;;;;;;;61.75;48.00;;;;;10.38;93.13;99653.63;5013178;27;46743;-74
2022/03/31 05:42:00;;;;;;;;;59.50;46.00;;;;;10.35;93.51;99658.69;4993339;28;45346;-73
2022/03/31 05:44:26;;;;;;;;;63.75;48.75;;;;;10.32;93.10;99654.31;4993364;27;45937;-73
2022/03/31 05:46:51;;;;;;;;;62.50;48.75;;;;;10.32;93.82;99648.25;4993913;27;46445;-74
2022/03/31 05:49:17;;;;;;;;;59.50;46.50;;;;;10.33;93.99;99650.00;5003854;27;45261;-74
2022/03/31 05:51:43;;;;;;;;;65.25;49.50;;;;;10.28;94.28;99647.28;5020112;27;45327;-77
2022/03/31 05:54:10;;;;;;;;;63.75;46.25;;;;;10.30;94.86;99658.56;5005792;27;45255;-74
2022/03/31 05:56:37;;;;;;;;;60.50;49.00;;;;;10.32;95.37;99656.91;4992669;27;45433;-77
2022/03/31 05:59:04;;;;;;;;;67.25;50.00;;;;;10.29;95.29;99649.03;4999975;27;45495;-74
2022/03/31 06:01:30;;;;;;;;;59.50;46.00;;;;;10.35;95.35;99658.69;5096397;27;45312;-74
2022/03/31 06:03:56;;;;;;;;;68.00;51.50;;;;;10.36;95.62;99660.44;5017447;27;45471;-74
2022/03/31 06:06:23;;;;;;;;;65.00;48.00;;;;;10.30;95.81;99652.53;5021137;27;46796;-73
2022/03/31 06:08:49;;;;;;;;;65.00;50.25;;;;;10.39;96.38;99665.72;5051593;27;45663;-75
2022/03/31 06:11:15;;;;;;;;;67.75;51.25;;;;;10.37;96.25;99659.59;5002649;28;46129;-82
2022/03/31 06:13:40;;;;;;;;;65.25;47.50;;;;;10.43;96.67;99680.50;4994796;27;45484;-77
2022/03/31 06:16:06;;;;;;;;;66.25;50.00;;;;;10.47;96.88;99678.88;4994072;27;45266;-81
2022/03/31 06:18:32;;;;;;;;;69.00;49.00;;;;;10.45;96.55;99673.66;4993468;28;45302;-80
2022/03/31 06:20:58;;;;;;;;;70.25;49.25;;;;;10.49;96.98;99674.59;5049076;27;45502;-85
2022/03/31 06:23:25;;;;;;;;;64.50;49.50;;;;;10.53;97.50;99677.31;4995050;28;45461;-79
2022/03/31 06:25:52;;;;;;;;;66.50;49.25;;;;;10.55;98.10;99668.72;4998506;27;45435;-78
2022/03/31 06:28:18;;;;;;;;;65.00;48.75;;;;;10.45;98.51;99646.91;4984256;28;45668;-84
2022/03/31 06:30:47;;;;;;;;;61.75;47.50;;;;;10.67;97.50;99675.09;4994537;28;47262;-77
2022/03/31 06:33:15;;;;;;;;;68.75;50.75;;;;;10.71;98.04;99678.66;4997398;27;46303;-74
2022/03/31 06:35:40;;;;;;;;;62.00;47.25;;;;;10.76;98.04;99671.00;5054335;27;45371;-75
2022/03/31 06:38:06;;;;;;;;;65.25;47.75;;;;;10.80;97.77;99665.94;5054606;27;45506;-78
2022/03/31 06:40:36;;;;;;;;;64.75;47.75;;;;;10.87;96.77;99666.97;5033136;27;45402;-76
2022/03/31 06:43:01;;;;;;;;;72.25;53.75;;;;;10.92;97.24;99662.75;5099067;27;45841;-77
2022/03/31 06:45:27;;;;;;;;;64.75;46.25;;;;;10.92;96.08;99656.72;5090305;27;45430;-77
2022/03/31 06:47:54;;;;;;;;;65.75;46.50;;;;;10.98;95.95;99660.34;5099649;27;45516;-77
2022/03/31 06:50:20;;;;;;;;;64.00;46.75;;;;;10.90;94.92;99635.97;5098672;27;45493;-77
2022/03/31 06:52:45;;;;;;;;;61.50;46.00;;;;;10.79;94.96;99629.66;5099186;27;45304;-78
2022/03/31 06:55:11;;;;;;;;;61.50;46.25;;;;;10.88;94.77;99647.09;5098802;27;45331;-76
2022/03/31 06:57:37;;;;;;;;;61.25;44.75;;;;;10.99;94.36;99666.38;5099054;27;45649;-75
2022/03/31 07:00:06;;;;;;;;;66.50;49.00;;;;;11.03;94.91;99678.56;5097637;27;45476;-75
2022/03/31 07:02:32;;;;;;;;;63.50;49.50;;;;;11.06;95.13;99682.94;5098069;27;45455;-75
2022/03/31 07:04:58;;;;;;;;;67.25;52.00;;;;;11.11;94.96;99674.44;5080480;27;45405;-76
2022/03/31 07:07:24;;;;;;;;;60.50;46.50;;;;;11.13;94.47;99672.78;5100126;27;45510;-76
2022/03/31 07:09:51;;;;;;;;;55.75;43.00;;;;;11.18;93.33;99674.59;5083341;27;47850;-75
2022/03/31 07:12:17;;;;;;;;;59.50;45.75;;;;;11.15;93.31;99676.28;5099576;27;45275;-76
2022/03/31 07:14:43;;;;;;;;;56.25;44.50;;;;;11.13;93.36;99684.84;5078420;27;45528;-75
2022/03/31 07:17:10;;;;;;;;;56.50;43.50;;;;;11.04;93.92;99667.38;5015340;27;45651;-82
2022/03/31 07:19:36;;;;;;;;;60.00;45.00;;;;;11.10;95.12;99675.28;5024643;27;47776;-81
2022/03/31 07:22:02;;;;;;;;;58.50;44.50;;;;;11.14;93.90;99682.31;5013638;27;45521;-82
2022/03/31 07:24:28;;;;;;;;;53.75;43.00;;;;;11.13;93.99;99680.56;4977745;28;45339;-76
2022/03/31 07:26:54;;;;;;;;;51.25;41.50;;;;;11.07;94.16;99663.97;5018871;27;45604;-76
2022/03/31 07:29:20;;;;;;;;;58.75;45.50;;;;;11.05;94.59;99663.06;5046867;27;45962;-74
2022/03/31 07:31:45;;;;;;;;;60.00;45.50;;;;;11.11;95.03;99678.78;4990567;27;45614;-78
2022/03/31 07:34:11;;;;;;;;;56.75;44.50;;;;;11.11;94.82;99681.34;4992334;28;45320;-77
2022/03/31 07:36:37;;;;;;;;;59.50;46.50;;;;;11.11;95.02;99679.63;4992710;28;45630;-81
2022/03/31 07:39:03;;;;;;;;;64.75;47.75;;;;;11.05;94.74;99683.78;4992600;28;45679;-78
2022/03/31 07:41:28;;;;;;;;;59.00;46.75;;;;;11.06;94.98;99694.19;4993918;28;45338;-76
2022/03/31 07:43:54;;;;;;;;;62.50;47.00;;;;;10.96;95.61;99681.88;4976840;28;45270;-75
2022/03/31 07:46:20;;;;;;;;;57.00;43.00;;;;;10.99;96.48;99694.88;4994108;28;45511;-78
2022/03/31 07:48:45;;;;;;;;;57.00;45.75;;;;;10.92;99.12;99693.84;4976740;28;45465;-78
2022/03/31 07:51:11;;;;;;;;;62.75;46.25;;;;;10.86;100.00;99693.69;4996747;28;45249;-82
2022/03/31 07:53:38;;;;;;;;;55.50;42.75;;;;;10.83;100.00;99699.69;4997602;28;45323;-77
2022/03/31 07:56:05;;;;;;;;;49.50;39.25;;;;;10.76;100.00;99697.75;4999896;28;45758;-73
2022/03/31 07:58:31;;;;;;;;;51.00;41.00;;;;;10.69;100.00;99711.38;4994698;27;46356;-75
2022/03/31 08:00:57;;;;;;;;;52.75;38.75;;;;;10.65;100.00;99705.25;4994425;28;45374;-72
2022/03/31 08:03:24;;;;;;;;;33.25;27.75;;;;;10.44;100.00;99696.91;4976895;28;45415;-74
2022/03/31 08:05:50;;;;;;;;;21.75;16.75;;;;;10.45;100.00;99711.59;4994591;28;45330;-73
2022/03/31 08:08:16;;;;;;;;;22.00;17.50;;;;;10.20;100.00;99708.28;4993493;28;46096;-72
2022/03/31 08:10:42;;;;;;;;;18.25;15.75;;;;;10.09;100.00;99714.84;4993653;28;45357;-73
2022/03/31 08:13:08;;;;;;;;;15.75;14.50;;;;;10.00;100.00;99723.22;4994022;28;45315;-72
2022/03/31 08:15:34;;;;;;;;;15.25;14.75;;;;;9.92;100.00;99738.53;4994393;27;45477;-73
2022/03/31 08:18:00;;;;;;;;;12.00;9.25;;;;;9.80;98.65;99744.19;4994508;28;46514;-72
2022/03/31 08:20:27;;;;;;;;;8.50;7.75;;;;;9.68;97.95;99748.97;4993903;28;45813;-74
2022/03/31 08:22:52;;;;;;;;;11.75;10.75;;;;;9.62;98.89;99748.78;4994067;28;45236;-72
2022/03/31 08:25:18;;;;;;;;;14.00;11.00;;;;;9.62;100.00;99754.81;4993661;28;45305;-72
2022/03/31 08:27:45;;;;;;;;;14.75;13.75;;;;;9.64;98.87;99755.75;4993512;28;45422;-71
2022/03/31 08:30:14;;;;;;;;;11.00;10.00;;;;;9.64;97.51;99766.09;4993800;28;45403;-72
2022/03/31 08:32:42;;;;;;;;;8.75;7.75;;;;;9.59;93.55;99762.50;4995605;28;45458;-70
2022/03/31 08:35:09;;;;;;;;;8.75;8.75;;;;;9.54;93.40;99775.28;4995164;28;45297;-74
2022/03/31 08:37:38;;;;;;;;;10.25;6.50;;;;;9.48;93.31;99779.38;4976277;28;45834;-73
2022/03/31 08:40:06;;;;;;;;;7.75;6.00;;;;;9.38;92.78;99776.50;4976251;28;45402;-73
2022/03/31 08:42:32;;;;;;;;;6.50;6.50;;;;;9.40;92.28;99802.34;4994146;28;45231;-72
2022/03/31 08:44:59;;;;;;;;;5.25;5.25;;;;;9.33;91.54;99806.44;4994216;28;45254;-71
2022/03/31 08:47:26;;;;;;;;;7.50;7.50;;;;;9.24;93.25;99798.38;4993495;27;45313;-70
2022/03/31 08:49:55;;;;;;;;;5.50;5.50;;;;;9.17;94.39;99807.63;4993684;28;45936;-70
2022/03/31 08:52:21;;;;;;;;;6.00;5.50;;;;;9.11;95.34;99802.28;4993438;28;45337;-71
2022/03/31 08:54:47;;;;;;;;;7.50;7.50;;;;;9.17;94.90;99819.69;4993890;28;45513;-70
2022/03/31 08:57:12;;;;;;;;;8.25;6.00;;;;;9.02;94.63;99810.56;4993287;27;45385;-71
2022/03/31 08:59:38;;;;;;;;;6.75;6.75;;;;;8.95;95.48;99824.09;4993635;28;45335;-77
2022/03/31 09:02:04;;;;;;;;;5.75;5.75;;;;;8.95;96.18;99830.13;4974771;28;45378;-71
2022/03/31 09:04:29;;;;;;;;;5.75;5.50;;;;;8.94;97.07;99837.81;4993138;28;45635;-71
2022/03/31 09:07:07;;;;;;;;;6.00;5.75;;;;;8.91;96.06;99842.88;4975364;28;46964;-73
2022/03/31 09:09:44;;;;;;;;;7.50;7.50;;;;;8.86;99.54;99836.66;4993798;28;45920;-72
2022/03/31 09:12:10;;;;;;;;;8.75;6.00;;;;;8.90;98.79;99856.59;4976010;28;45406;-69
2022/03/31 09:14:35;;;;;;;;;6.25;6.00;;;;;8.91;99.29;99851.47;4994936;27;45267;-73
2022/03/31 09:17:11;;;;;;;;;7.25;6.00;;;;;8.95;100.00;99855.06;4994768;28;46095;-70
2022/03/31 09:19:38;;;;;;;;;8.50;6.50;;;;;8.90;98.08;99848.84;4977086;28;45458;-72
2022/03/31 09:22:04;;;;;;;;;5.50;5.50;;;;;8.93;96.96;99861.88;4977067;28;45455;-75
2022/03/31 09:24:31;;;;;;;;;4.75;4.75;;;;;8.90;96.74;99872.09;4990702;28;45446;-75
2022/03/31 09:26:59;;;;;;;;;5.75;5.75;;;;;8.83;96.23;99877.03;4993065;27;45782;-79
2022/03/31 09:29:29;;;;;;;;;8.00;5.25;;;;;8.76;96.26;99869.00;4993143;27;45321;-76
2022/03/31 09:32:12;;;;;;;;;11.00;8.75;;;;;8.63;97.24;99867.69;4993394;28;45232;-76
2022/03/31 09:34:47;;;;;;;;;4.25;4.00;;;;;8.65;96.56;99882.38;4993795;28;45426;-75
2022/03/31 09:37:13;;;;;;;;;4.75;4.75;;;;;8.62;98.09;99892.59;4992679;28;46450;-78
2022/03/31 09:39:40;;;;;;;;;9.00;6.25;;;;;8.67;99.37;99892.75;5060919;28;45755;-78
2022/03/31 09:42:13;;;;;;;;;8.25;6.00;;;;;8.72;99.27;99904.16;4992795;27;45322;-76
2022/03/31 09:44:41;;;;;;;;;6.75;6.75;;;;;8.77;100.00;99888.84;4992950;28;45454;-76
2022/03/31 09:47:07;;;;;;;;;8.75;7.00;;;;;8.77;98.18;99894.84;4993356;27;45495;-73
2022/03/31 09:49:33;;;;;;;;;11.00;9.75;;;;;8.72;98.45;99887.75;4991304;27;45508;-73
2022/03/31 09:52:04;;;;;;;;;5.00;5.00;;;;;8.88;97.47;99910.75;4993155;28;45946;-73
2022/03/31 09:54:32;;;;;;;;;10.25;10.25;;;;;8.88;97.04;99907.28;4993267;28;45258;-74
2022/03/31 09:57:00;;;;;;;;;8.00;5.00;;;;;8.91;98.99;99913.44;4993539;28;45444;-74
2022/03/31 09:59:39;;;;;;;;;7.00;7.00;;;;;8.91;97.24;99903.09;4976202;28;46047;-75
2022/03/31 10:02:06;;;;;;;;;5.75;4.25;;;;;8.92;95.92;99909.16;4988682;27;45458;-75
2022/03/31 10:04:34;;;;;;;;;6.00;6.00;;;;;8.94;95.79;99904.94;4992828;27;45366;-74
2022/03/31 10:07:00;;;;;;;;;5.00;5.00;;;;;8.92;97.32;99911.75;4991331;28;46738;-73
2022/03/31 10:09:26;;;;;;;;;5.00;4.50;;;;;9.05;96.34;99907.91;5002530;27;45756;-75
2022/03/31 10:12:10;;;;;;;;;6.00;6.00;;;;;9.08;96.14;99919.22;5006568;27;45465;-76
2022/03/31 10:14:52;;;;;;;;;5.25;5.25;;;;;9.10;96.58;99907.25;5036535;27;45214;-75
2022/03/31 10:17:24;;;;;;;;;5.25;5.25;;;;;9.11;95.89;99898.69;4994182;27;46165;-78
2022/03/31 10:19:50;;;;;;;;;4.50;4.00;;;;;9.12;93.08;99903.00;4993371;28;45430;-75
2022/03/31 10:25:07;;;;;;;;;8.25;6.25;;;;;9.16;96.15;99901.41;4994644;28;45659;-76
2022/03/31 10:27:36;;;;;;;;;7.75;5.50;;;;;9.30;96.82;99904.47;4994228;27;45480;-75
2022/03/31 10:30:14;;;;;;;;;3.00;3.00;;;;;9.37;93.92;99908.16;4994944;27;46262;-76
2022/03/31 10:32:58;;;;;;;;;4.50;3.00;;;;;9.35;92.78;99895.22;4994848;28;45512;-76
2022/03/31 10:35:29;;;;;;;;;9.00;8.00;;;;;9.43;94.97;99895.47;4995980;28;46070;-75
2022/03/31 10:37:56;;;;;;;;;4.25;4.25;;;;;9.54;92.33;99898.41;5002023;27;45253;-79
2022/03/31 10:40:35;;;;;;;;;3.25;3.25;;;;;9.50;91.12;99896.56;4978483;28;45418;-74
2022/03/31 10:43:02;;;;;;;;;3.00;3.00;;;;;9.27;92.94;99871.69;5001316;28;45297;-80
2022/03/31 10:45:37;;;;;;;;;3.25;3.25;;;;;9.58;94.27;99905.47;4979234;28;45403;-77
2022/03/31 10:48:30;;;;;;;;;2.75;2.00;;;;;9.69;92.10;99905.81;4982336;28;47677;-74
2022/03/31 10:51:02;;;;;;;;;4.00;3.25;;;;;9.79;91.65;99900.13;5067308;27;45223;-75
2022/03/31 10:53:29;;;;;;;;;3.00;2.00;;;;;9.81;89.93;99901.06;5086584;27;45517;-76
2022/03/31 10:55:55;;;;;;;;;4.00;4.00;;;;;9.86;91.69;99896.03;5001197;27;45450;-75
2022/03/31 10:58:28;;;;;;;;;0.75;0.75;;;;;9.96;90.69;99900.66;4997529;27;46176;-75
2022/03/31 11:00:55;;;;;;;;;6.00;6.00;;;;;9.99;89.66;99890.44;5065535;27;45913;-76
2022/03/31 11:03:21;;;;;;;;;8.25;6.00;;;;;10.04;88.07;99888.00;5052050;27;45511;-75
2022/03/31 11:05:48;;;;;;;;;5.00;5.00;;;;;10.00;85.92;99886.13;5031623;27;45503;-75
2022/03/31 11:08:18;;;;;;;;;5.00;4.50;;;;;10.10;85.72;99903.69;5044957;27;45382;-76
2022/03/31 11:10:49;;;;;;;;;3.50;3.50;;;;;10.05;84.33;99894.94;5031093;28;45863;-76
2022/03/31 11:13:21;;;;;;;;;3.25;3.25;;;;;9.84;82.48;99890.81;4994451;28;45347;-73
2022/03/31 11:15:50;;;;;;;;;3.50;3.50;;;;;9.74;83.76;99881.88;4961822;28;45334;-76
2022/03/31 11:18:20;;;;;;;;;5.25;5.00;;;;;9.82;83.94;99901.94;4976956;28;45495;-75
2022/03/31 11:20:49;;;;;;;;;6.00;4.75;;;;;9.90;84.85;99903.94;4994949;27;45847;-75
2022/03/31 11:23:15;;;;;;;;;6.00;6.00;;;;;9.93;84.35;99890.25;4995802;28;45314;-74
2022/03/31 11:25:43;;;;;;;;;5.25;5.00;;;;;9.96;80.67;99899.81;4978772;28;45550;-75
2022/03/31 11:28:11;;;;;;;;;4.50;4.50;;;;;9.79;81.96;99884.59;4993209;28;46389;-75